NOAA Web Site Link Tides and Currents Home Page Transparent placeholder image

PORTS® Data Listing: 8540433 Marcus Hook, PA

CO-OPS RAW PORTS DATA

************************      PRELIMINARY DATA      ************************** 

     THIS RAW DATA HAS NOT BEEN SUBJECT TO THE NATIONAL OCEAN SERVICE'S        
     QUALITY CONTROL OR QUALITY ASSURANCE PROCEDURES AND DOES NOT MEET         
     THE CRITERIA AND STANDARDS OF OFFICIAL NATIONAL OCEAN SERVICE             
     DATA.  IT IS RELEASED FOR LIMITED PUBLIC USE AS PRELIMINARY DATA TO       
     BE USED ONLY WITH APPROPRIATE CAUTION.                                    

************************      PRELIMINARY DATA      ************************** 


       CD   -   Calendar date
       T    -   Time
       TZ   -   Timezone
       PW   -   Predicted water level (feet above MLLW)
       OW   -   Observed water level (feet above MLLW)
       WS   -   Wind speed (knots)
       WD   -   Wind direction (degrees true)
       WG   -   Wind gust (knots)
       AT   -   Air temperature (degrees farenheit)
       WT   -   Water temperature (degrees farenheit)
       AP   -   Air pressure (millibars)
       SA   -   Salinty (PSU - Practical Salinity Units)
       SG   -   Specific gravity
       RH   -   Relative humidity
       AG   -   Air gap (feet)
       VI   -   Visibility (nautical miles)

       ** NOTE **
       A variable that has its data fields filled with "9"s, indicates that
       data was not collected for that sample period.
       **********


STATION NAME: Marcus Hook (8540433)
****************************************************************************************************
    CD       T    TZ    PW     OW    WS   WD   WG    AT    WT    AP    SA    SG     RH    AG   VI
****************************************************************************************************
2018/10/18 21:18 EDT    5.70   5.24 -999 -999 -999  50.9  62.6 1028.2 -9.9 -9.999 -99.9 -99.99 -9.99
2018/10/18 21:24 EDT    5.64   5.18 -999 -999 -999  51.1  62.6 1028.2 -9.9 -9.999 -99.9 -99.99 -9.99
2018/10/18 21:30 EDT    5.58   5.13 -999 -999 -999  50.9  62.6 1028.2 -9.9 -9.999 -99.9 -99.99 -9.99
2018/10/18 21:36 EDT    5.52   5.08 -999 -999 -999  50.4  62.6 1028.2 -9.9 -9.999 -99.9 -99.99 -9.99
2018/10/18 21:42 EDT    5.45   5.01 -999 -999 -999  49.5  62.6 1028.3 -9.9 -9.999 -99.9 -99.99 -9.99
2018/10/18 21:48 EDT    5.37   4.95 -999 -999 -999  49.3  62.6 1028.4 -9.9 -9.999 -99.9 -99.99 -9.99
2018/10/18 21:54 EDT    5.29   4.88 -999 -999 -999  48.7  62.4 1028.4 -9.9 -9.999 -99.9 -99.99 -9.99
2018/10/18 22:00 EDT    5.21   4.80 -999 -999 -999  48.2  62.4 1028.4 -9.9 -9.999 -99.9 -99.99 -9.99
2018/10/18 22:06 EDT    5.12   4.72 -999 -999 -999  47.7  62.4 1028.3 -9.9 -9.999 -99.9 -99.99 -9.99
2018/10/18 22:12 EDT    5.03   4.63 -999 -999 -999  47.5  62.2 1028.4 -9.9 -9.999 -99.9 -99.99 -9.99
2018/10/18 22:18 EDT    4.94   4.53 -999 -999 -999  47.3  62.4 1028.4 -9.9 -9.999 -99.9 -99.99 -9.99
2018/10/18 22:24 EDT    4.85   4.42 -999 -999 -999  47.1  62.6 1028.3 -9.9 -9.999 -99.9 -99.99 -9.99
2018/10/18 22:30 EDT    4.75   4.34 -999 -999 -999  46.6  62.6 1028.4 -9.9 -9.999 -99.9 -99.99 -9.99
2018/10/18 22:36 EDT    4.65   4.25 -999 -999 -999  46.2  62.6 1028.4 -9.9 -9.999 -99.9 -99.99 -9.99
2018/10/18 22:42 EDT    4.55   4.15 -999 -999 -999  45.9  62.6 1028.3 -9.9 -9.999 -99.9 -99.99 -9.99
2018/10/18 22:48 EDT    4.45   4.05 -999 -999 -999  45.5  62.6 1028.3 -9.9 -9.999 -99.9 -99.99 -9.99
2018/10/18 22:54 EDT    4.34   3.94 -999 -999 -999  45.3  62.4 1028.4 -9.9 -9.999 -99.9 -99.99 -9.99
2018/10/18 23:00 EDT    4.24   3.84 -999 -999 -999  45.1  62.4 1028.4 -9.9 -9.999 -99.9 -99.99 -9.99
2018/10/18 23:06 EDT    4.13   3.73 -999 -999 -999  45.0  62.4 1028.3 -9.9 -9.999 -99.9 -99.99 -9.99
2018/10/18 23:12 EDT    4.02   3.63 -999 -999 -999  45.0  62.4 1028.2 -9.9 -9.999 -99.9 -99.99 -9.99
2018/10/18 23:18 EDT    3.92   3.53 -999 -999 -999  45.0  62.4 1028.2 -9.9 -9.999 -99.9 -99.99 -9.99
2018/10/18 23:24 EDT    3.81   3.42 -999 -999 -999  45.0  62.4 1028.2 -9.9 -9.999 -99.9 -99.99 -9.99
2018/10/18 23:30 EDT    3.70   3.31 -999 -999 -999  44.8  62.4 1028.2 -9.9 -9.999 -99.9 -99.99 -9.99
2018/10/18 23:36 EDT    3.59   3.22 -999 -999 -999  44.8  62.4 1028.2 -9.9 -9.999 -99.9 -99.99 -9.99
2018/10/18 23:42 EDT    3.48   3.11 -999 -999 -999  44.8  62.4 1028.2 -9.9 -9.999 -99.9 -99.99 -9.99
2018/10/18 23:48 EDT    3.37   3.00 -999 -999 -999  44.6  62.4 1028.2 -9.9 -9.999 -99.9 -99.99 -9.99
2018/10/18 23:54 EDT    3.27   2.90 -999 -999 -999  44.4  62.4 1028.2 -9.9 -9.999 -99.9 -99.99 -9.99
2018/10/19 00:00 EDT    3.16   2.80 -999 -999 -999  44.4  62.4 1028.1 -9.9 -9.999 -99.9 -99.99 -9.99
2018/10/19 00:06 EDT    3.06   2.70 -999 -999 -999  44.4  62.4 1028.1 -9.9 -9.999 -99.9 -99.99 -9.99
2018/10/19 00:12 EDT    2.96   2.60 -999 -999 -999  44.2  62.4 1028.0 -9.9 -9.999 -99.9 -99.99 -9.99
2018/10/19 00:18 EDT    2.86   2.49 -999 -999 -999  44.1  62.4 1028.0 -9.9 -9.999 -99.9 -99.99 -9.99
2018/10/19 00:24 EDT    2.76   2.39 -999 -999 -999  43.9  62.4 1027.9 -9.9 -9.999 -99.9 -99.99 -9.99
2018/10/19 00:30 EDT    2.66   2.30 -999 -999 -999  43.7  62.4 1027.9 -9.9 -9.999 -99.9 -99.99 -9.99
2018/10/19 00:36 EDT    2.57   2.20 -999 -999 -999  43.9  62.4 1027.8 -9.9 -9.999 -99.9 -99.99 -9.99
2018/10/19 00:42 EDT    2.48   2.11 -999 -999 -999  44.1  62.4 1027.7 -9.9 -9.999 -99.9 -99.99 -9.99
2018/10/19 00:48 EDT    2.39   2.01 -999 -999 -999  44.4  62.4 1027.8 -9.9 -9.999 -99.9 -99.99 -9.99
2018/10/19 00:54 EDT    2.30   1.92 -999 -999 -999  44.4  62.4 1027.8 -9.9 -9.999 -99.9 -99.99 -9.99
2018/10/19 01:00 EDT    2.21   1.83 -999 -999 -999  44.4  62.4 1027.9 -9.9 -9.999 -99.9 -99.99 -9.99
2018/10/19 01:06 EDT    2.13   1.74 -999 -999 -999  44.4  62.4 1027.9 -9.9 -9.999 -99.9 -99.99 -9.99
2018/10/19 01:12 EDT    2.05   1.65 -999 -999 -999  44.2  62.4 1027.9 -9.9 -9.999 -99.9 -99.99 -9.99
2018/10/19 01:18 EDT    1.96   1.54 -999 -999 -999  44.1  62.4 1027.9 -9.9 -9.999 -99.9 -99.99 -9.99
2018/10/19 01:24 EDT    1.88   1.45 -999 -999 -999  43.9  62.4 1027.9 -9.9 -9.999 -99.9 -99.99 -9.99
2018/10/19 01:30 EDT    1.80   1.36 -999 -999 -999  43.9  62.2 1027.9 -9.9 -9.999 -99.9 -99.99 -9.99
2018/10/19 01:36 EDT    1.72   1.27 -999 -999 -999  43.7  62.2 1027.9 -9.9 -9.999 -99.9 -99.99 -9.99
2018/10/19 01:42 EDT    1.64   1.18 -999 -999 -999  43.7  62.2 1028.0 -9.9 -9.999 -99.9 -99.99 -9.99
2018/10/19 01:48 EDT    1.56   1.10 -999 -999 -999  43.7  62.2 1028.0 -9.9 -9.999 -99.9 -99.99 -9.99
2018/10/19 01:54 EDT    1.48   1.01 -999 -999 -999  43.7  62.2 1027.9 -9.9 -9.999 -99.9 -99.99 -9.99
2018/10/19 02:00 EDT    1.40   0.92 -999 -999 -999  43.7  62.2 1028.0 -9.9 -9.999 -99.9 -99.99 -9.99
2018/10/19 02:06 EDT    1.32   0.84 -999 -999 -999  43.7  62.2 1028.0 -9.9 -9.999 -99.9 -99.99 -9.99
2018/10/19 02:12 EDT    1.25   0.76 -999 -999 -999  43.5  62.2 1028.0 -9.9 -9.999 -99.9 -99.99 -9.99
2018/10/19 02:18 EDT    1.17   0.69 -999 -999 -999  43.5  62.2 1028.0 -9.9 -9.999 -99.9 -99.99 -9.99
2018/10/19 02:24 EDT    1.10   0.61 -999 -999 -999  43.5  62.2 1028.0 -9.9 -9.999 -99.9 -99.99 -9.99
2018/10/19 02:30 EDT    1.02   0.51 -999 -999 -999  43.7  62.2 1028.0 -9.9 -9.999 -99.9 -99.99 -9.99
2018/10/19 02:36 EDT    0.95   0.45 -999 -999 -999  43.7  62.1 1027.9 -9.9 -9.999 -99.9 -99.99 -9.99
2018/10/19 02:42 EDT    0.89   0.38 -999 -999 -999  43.7  62.1 1027.9 -9.9 -9.999 -99.9 -99.99 -9.99
2018/10/19 02:48 EDT    0.83   0.32 -999 -999 -999  43.5  62.1 1027.9 -9.9 -9.999 -99.9 -99.99 -9.99
2018/10/19 02:54 EDT    0.77   0.25 -999 -999 -999  43.7  62.1 1027.8 -9.9 -9.999 -99.9 -99.99 -9.99
2018/10/19 03:00 EDT    0.72   0.18 -999 -999 -999  44.2  62.1 1027.8 -9.9 -9.999 -99.9 -99.99 -9.99
2018/10/19 03:06 EDT    0.68   0.13 -999 -999 -999  44.6  62.1 1027.8 -9.9 -9.999 -99.9 -99.99 -9.99
2018/10/19 03:12 EDT    0.65   0.07 -999 -999 -999  45.1  62.1 1027.8 -9.9 -9.999 -99.9 -99.99 -9.99
2018/10/19 03:18 EDT    0.62   0.01 -999 -999 -999  44.8  62.1 1027.7 -9.9 -9.999 -99.9 -99.99 -9.99
2018/10/19 03:24 EDT    0.61  -0.04 -999 -999 -999  43.9  62.1 1027.7 -9.9 -9.999 -99.9 -99.99 -9.99
2018/10/19 03:30 EDT    0.60  -0.07 -999 -999 -999  43.9  61.9 1027.7 -9.9 -9.999 -99.9 -99.99 -9.99
2018/10/19 03:36 EDT    0.61  -0.09 -999 -999 -999  43.5  61.9 1027.7 -9.9 -9.999 -99.9 -99.99 -9.99
2018/10/19 03:42 EDT    0.62  -0.11 -999 -999 -999  43.3  61.9 1027.7 -9.9 -9.999 -99.9 -99.99 -9.99
2018/10/19 03:48 EDT    0.65  -0.10 -999 -999 -999  43.2  61.9 1027.6 -9.9 -9.999 -99.9 -99.99 -9.99
2018/10/19 03:54 EDT    0.69  -0.09 -999 -999 -999  43.2  61.7 1027.6 -9.9 -9.999 -99.9 -99.99 -9.99
2018/10/19 04:00 EDT    0.74  -0.05 -999 -999 -999  43.0  61.9 1027.6 -9.9 -9.999 -99.9 -99.99 -9.99
2018/10/19 04:06 EDT    0.80   0.01 -999 -999 -999  42.6  61.9 1027.6 -9.9 -9.999 -99.9 -99.99 -9.99
2018/10/19 04:12 EDT    0.87   0.08 -999 -999 -999  42.3  61.7 1027.6 -9.9 -9.999 -99.9 -99.99 -9.99
2018/10/19 04:18 EDT    0.95   0.17 -999 -999 -999  42.1  61.5 1027.6 -9.9 -9.999 -99.9 -99.99 -9.99
2018/10/19 04:24 EDT    1.04   0.30 -999 -999 -999  42.4  61.3 1027.5 -9.9 -9.999 -99.9 -99.99 -9.99
2018/10/19 04:30 EDT    1.13   0.44 -999 -999 -999  42.4  61.0 1027.5 -9.9 -9.999 -99.9 -99.99 -9.99
2018/10/19 04:36 EDT    1.24   0.60 -999 -999 -999  42.8  60.6 1027.5 -9.9 -9.999 -99.9 -99.99 -9.99
2018/10/19 04:42 EDT    1.35   0.78 -999 -999 -999  42.8  61.3 1027.5 -9.9 -9.999 -99.9 -99.99 -9.99
2018/10/19 04:48 EDT    1.46   0.96 -999 -999 -999  42.6  61.3 1027.5 -9.9 -9.999 -99.9 -99.99 -9.99
2018/10/19 04:54 EDT    1.58   1.15 -999 -999 -999  42.8  61.2 1027.6 -9.9 -9.999 -99.9 -99.99 -9.99
2018/10/19 05:00 EDT    1.71   1.33 -999 -999 -999  43.2  61.2 1027.6 -9.9 -9.999 -99.9 -99.99 -9.99
2018/10/19 05:06 EDT    1.83   1.50 -999 -999 -999  43.2  61.2 1027.6 -9.9 -9.999 -99.9 -99.99 -9.99
2018/10/19 05:12 EDT    1.96   1.67 -999 -999 -999  43.2  61.3 1027.5 -9.9 -9.999 -99.9 -99.99 -9.99
2018/10/19 05:18 EDT    2.08   1.83 -999 -999 -999  43.3  61.3 1027.5 -9.9 -9.999 -99.9 -99.99 -9.99
2018/10/19 05:24 EDT    2.21   1.98 -999 -999 -999  43.2  61.3 1027.5 -9.9 -9.999 -99.9 -99.99 -9.99
2018/10/19 05:30 EDT    2.33   2.12 -999 -999 -999  43.0  61.3 1027.6 -9.9 -9.999 -99.9 -99.99 -9.99
2018/10/19 05:36 EDT    2.45   2.26 -999 -999 -999  43.5  61.3 1027.6 -9.9 -9.999 -99.9 -99.99 -9.99
2018/10/19 05:42 EDT    2.57   2.40 -999 -999 -999  43.7  61.2 1027.6 -9.9 -9.999 -99.9 -99.99 -9.99
2018/10/19 05:48 EDT    2.69   2.53 -999 -999 -999  44.6  61.2 1027.6 -9.9 -9.999 -99.9 -99.99 -9.99
2018/10/19 05:54 EDT    2.80   2.65 -999 -999 -999  45.0  61.2 1027.6 -9.9 -9.999 -99.9 -99.99 -9.99
2018/10/19 06:00 EDT    2.91   2.77 -999 -999 -999  45.0  61.2 1027.7 -9.9 -9.999 -99.9 -99.99 -9.99
2018/10/19 06:06 EDT    3.02   2.91 -999 -999 -999  45.3  61.2 1027.6 -9.9 -9.999 -99.9 -99.99 -9.99
2018/10/19 06:12 EDT    3.13   3.05 -999 -999 -999  45.9  61.3 1027.6 -9.9 -9.999 -99.9 -99.99 -9.99
2018/10/19 06:18 EDT    3.23   3.17 -999 -999 -999  45.5  61.2 1027.6 -9.9 -9.999 -99.9 -99.99 -9.99
2018/10/19 06:24 EDT    3.33   3.29 -999 -999 -999  45.0  61.0 1027.6 -9.9 -9.999 -99.9 -99.99 -9.99
2018/10/19 06:30 EDT    3.43   3.42 -999 -999 -999  45.3  61.0 1027.6 -9.9 -9.999 -99.9 -99.99 -9.99
2018/10/19 06:36 EDT    3.53   3.57 -999 -999 -999  45.3  61.0 1027.6 -9.9 -9.999 -99.9 -99.99 -9.99
2018/10/19 06:42 EDT    3.62   3.72 -999 -999 -999  44.1  61.0 1027.6 -9.9 -9.999 -99.9 -99.99 -9.99
2018/10/19 06:48 EDT    3.72   3.86 -999 -999 -999  43.9  61.0 1027.6 -9.9 -9.999 -99.9 -99.99 -9.99
2018/10/19 06:54 EDT    3.81   3.99 -999 -999 -999  44.1  61.2 1027.6 -9.9 -9.999 -99.9 -99.99 -9.99
2018/10/19 07:00 EDT    3.90   4.12 -999 -999 -999  44.6  61.2 1027.6 -9.9 -9.999 -99.9 -99.99 -9.99
2018/10/19 07:06 EDT    4.00   4.26 -999 -999 -999  45.0  61.2 1027.6 -9.9 -9.999 -99.9 -99.99 -9.99
2018/10/19 07:12 EDT    4.09   4.38 -999 -999 -999  46.0  61.2 1027.6 -9.9 -9.999 -99.9 -99.99 -9.99
2018/10/19 07:18 EDT    4.18   4.50 -999 -999 -999  45.1  61.2 1027.6 -9.9 -9.999 -99.9 -99.99 -9.99
2018/10/19 07:24 EDT    4.28   4.60 -999 -999 -999  45.1  61.0 1027.6 -9.9 -9.999 -99.9 -99.99 -9.99
2018/10/19 07:30 EDT    4.37   4.72 -999 -999 -999  44.8  61.0 1027.7 -9.9 -9.999 -99.9 -99.99 -9.99
2018/10/19 07:36 EDT    4.46   4.85 -999 -999 -999  44.8  60.8 1027.7 -9.9 -9.999 -99.9 -99.99 -9.99
2018/10/19 07:42 EDT    4.55   4.94 -999 -999 -999  44.8  60.6 1027.6 -9.9 -9.999 -99.9 -99.99 -9.99
2018/10/19 07:48 EDT    4.63   5.04 -999 -999 -999  45.3  60.8 1027.6 -9.9 -9.999 -99.9 -99.99 -9.99
2018/10/19 07:54 EDT    4.72   5.13 -999 -999 -999  45.9  60.8 1027.6 -9.9 -9.999 -99.9 -99.99 -9.99
2018/10/19 08:00 EDT    4.80   5.21 -999 -999 -999  46.6  60.8 1027.6 -9.9 -9.999 -99.9 -99.99 -9.99
2018/10/19 08:06 EDT    4.88   5.28 -999 -999 -999  47.1  61.0 1027.7 -9.9 -9.999 -99.9 -99.99 -9.99
2018/10/19 08:12 EDT    4.95   5.35 -999 -999 -999  47.8  61.0 1027.7 -9.9 -9.999 -99.9 -99.99 -9.99
2018/10/19 08:18 EDT    5.02   5.43 -999 -999 -999  48.4  61.0 1027.7 -9.9 -9.999 -99.9 -99.99 -9.99
2018/10/19 08:24 EDT    5.08   5.49 -999 -999 -999  49.5  61.2 1027.7 -9.9 -9.999 -99.9 -99.99 -9.99
2018/10/19 08:30 EDT    5.13   5.55 -999 -999 -999  49.5  61.2 1027.7 -9.9 -9.999 -99.9 -99.99 -9.99
2018/10/19 08:36 EDT    5.18   5.58 -999 -999 -999  48.9  61.2 1027.7 -9.9 -9.999 -99.9 -99.99 -9.99
2018/10/19 08:42 EDT    5.22   5.63 -999 -999 -999  48.0  61.3 1027.7 -9.9 -9.999 -99.9 -99.99 -9.99
2018/10/19 08:48 EDT    5.26   5.68 -999 -999 -999  48.6  61.3 1027.7 -9.9 -9.999 -99.9 -99.99 -9.99
2018/10/19 08:54 EDT    5.28   5.70 -999 -999 -999  48.6  61.3 1027.7 -9.9 -9.999 -99.9 -99.99 -9.99
2018/10/19 09:00 EDT    5.30   5.72 -999 -999 -999  48.6  61.3 1027.6 -9.9 -9.999 -99.9 -99.99 -9.99
2018/10/19 09:06 EDT    5.31   5.74 -999 -999 -999  48.6  61.3 1027.4 -9.9 -9.999 -99.9 -99.99 -9.99
2018/10/19 09:12 EDT    5.31   5.74 -999 -999 -999  48.9  61.3 1027.4 -9.9 -9.999 -99.9 -99.99 -9.99
2018/10/19 09:18 EDT    5.30   5.71 -999 -999 -999  49.5  61.5 1027.4 -9.9 -9.999 -99.9 -99.99 -9.99
2018/10/19 09:24 EDT    5.29   5.67 -999 -999 -999  49.5  61.7 1027.4 -9.9 -9.999 -99.9 -99.99 -9.99
2018/10/19 09:30 EDT    5.27   5.66 -999 -999 -999  49.8  61.7 1027.4 -9.9 -9.999 -99.9 -99.99 -9.99
2018/10/19 09:36 EDT    5.23   5.64 -999 -999 -999  50.2  61.7 1027.4 -9.9 -9.999 -99.9 -99.99 -9.99
2018/10/19 09:42 EDT    5.20   5.58 -999 -999 -999  50.5  61.7 1027.3 -9.9 -9.999 -99.9 -99.99 -9.99
2018/10/19 09:48 EDT    5.15   5.52 -999 -999 -999  50.9  61.7 1027.3 -9.9 -9.999 -99.9 -99.99 -9.99
2018/10/19 09:54 EDT    5.10   5.45 -999 -999 -999  51.8  61.9 1027.2 -9.9 -9.999 -99.9 -99.99 -9.99
2018/10/19 10:00 EDT    5.04   5.37 -999 -999 -999  52.5  61.9 1027.1 -9.9 -9.999 -99.9 -99.99 -9.99
2018/10/19 10:06 EDT    4.98   5.28 -999 -999 -999  52.9  61.9 1027.1 -9.9 -9.999 -99.9 -99.99 -9.99
2018/10/19 10:12 EDT    4.91   5.18 -999 -999 -999  53.2  61.9 1027.0 -9.9 -9.999 -99.9 -99.99 -9.99
2018/10/19 10:18 EDT    4.84   5.08 -999 -999 -999  52.2  61.9 1026.9 -9.9 -9.999 -99.9 -99.99 -9.99
2018/10/19 10:24 EDT    4.76   5.00 -999 -999 -999  51.6  61.9 1026.8 -9.9 -9.999 -99.9 -99.99 -9.99
2018/10/19 10:30 EDT    4.68   4.90 -999 -999 -999  51.8  61.9 1026.8 -9.9 -9.999 -99.9 -99.99 -9.99
2018/10/19 10:36 EDT    4.59   4.82 -999 -999 -999  52.0  61.9 1026.6 -9.9 -9.999 -99.9 -99.99 -9.99
2018/10/19 10:42 EDT    4.50   4.70 -999 -999 -999  52.2  61.9 1026.5 -9.9 -9.999 -99.9 -99.99 -9.99
2018/10/19 10:48 EDT    4.41   4.63 -999 -999 -999  52.7  62.1 1026.5 -9.9 -9.999 -99.9 -99.99 -9.99
2018/10/19 10:54 EDT    4.32   4.53 -999 -999 -999  53.2  62.1 1026.4 -9.9 -9.999 -99.9 -99.99 -9.99
2018/10/19 11:00 EDT    4.22   4.44 -999 -999 -999  53.8  62.1 1026.3 -9.9 -9.999 -99.9 -99.99 -9.99
2018/10/19 11:06 EDT    4.12   4.35 -999 -999 -999  53.4  62.1 1026.1 -9.9 -9.999 -99.9 -99.99 -9.99
2018/10/19 11:12 EDT    4.01   4.25 -999 -999 -999  53.8  62.1 1026.1 -9.9 -9.999 -99.9 -99.99 -9.99
2018/10/19 11:18 EDT    3.91   4.15 -999 -999 -999  54.0  62.1 1026.0 -9.9 -9.999 -99.9 -99.99 -9.99
2018/10/19 11:24 EDT    3.80   4.06 -999 -999 -999  54.1  62.1 1025.8 -9.9 -9.999 -99.9 -99.99 -9.99
2018/10/19 11:30 EDT    3.69   3.96 -999 -999 -999  54.7  62.1 1025.8 -9.9 -9.999 -99.9 -99.99 -9.99
2018/10/19 11:36 EDT    3.59   3.86 -999 -999 -999  54.9  62.1 1025.8 -9.9 -9.999 -99.9 -99.99 -9.99
2018/10/19 11:42 EDT    3.48   3.76 -999 -999 -999  55.2  62.1 1025.6 -9.9 -9.999 -99.9 -99.99 -9.99
2018/10/19 11:48 EDT    3.37   3.68 -999 -999 -999  55.6  62.1 1025.6 -9.9 -9.999 -99.9 -99.99 -9.99
2018/10/19 11:54 EDT    3.25   3.56 -999 -999 -999  55.6  62.1 1025.5 -9.9 -9.999 -99.9 -99.99 -9.99
2018/10/19 12:00 EDT    3.14   3.48 -999 -999 -999  56.1  62.1 1025.3 -9.9 -9.999 -99.9 -99.99 -9.99
2018/10/19 12:06 EDT    3.04   3.39 -999 -999 -999  55.9  62.1 1025.2 -9.9 -9.999 -99.9 -99.99 -9.99
2018/10/19 12:12 EDT    2.93   3.28 -999 -999 -999  56.3  62.1 1025.0 -9.9 -9.999 -99.9 -99.99 -9.99
2018/10/19 12:18 EDT    2.82   3.18 -999 -999 -999  56.5  62.1 1024.8 -9.9 -9.999 -99.9 -99.99 -9.99
2018/10/19 12:24 EDT    2.71   3.09 -999 -999 -999  56.7  62.2 1024.8 -9.9 -9.999 -99.9 -99.99 -9.99
2018/10/19 12:30 EDT    2.61   3.00 -999 -999 -999  56.8  62.2 1024.6 -9.9 -9.999 -99.9 -99.99 -9.99
2018/10/19 12:36 EDT    2.51   2.90 -999 -999 -999  57.2  62.2 1024.4 -9.9 -9.999 -99.9 -99.99 -9.99
2018/10/19 12:42 EDT    2.41   2.82 -999 -999 -999  57.2  62.2 1024.2 -9.9 -9.999 -99.9 -99.99 -9.99
2018/10/19 12:48 EDT    2.32   2.74 -999 -999 -999  57.6  62.2 1023.9 -9.9 -9.999 -99.9 -99.99 -9.99
2018/10/19 12:54 EDT    2.22   2.65 -999 -999 -999  57.7  62.2 1023.7 -9.9 -9.999 -99.9 -99.99 -9.99
2018/10/19 13:00 EDT    2.13   2.58 -999 -999 -999  57.9  62.2 1023.6 -9.9 -9.999 -99.9 -99.99 -9.99
2018/10/19 13:06 EDT    2.05   2.49 -999 -999 -999  58.1  62.2 1023.4 -9.9 -9.999 -99.9 -99.99 -9.99
2018/10/19 13:12 EDT    1.96   2.41 -999 -999 -999  57.9  62.2 1023.3 -9.9 -9.999 -99.9 -99.99 -9.99
2018/10/19 13:18 EDT    1.88   2.33 -999 -999 -999  58.1  62.2 1023.1 -9.9 -9.999 -99.9 -99.99 -9.99
2018/10/19 13:24 EDT    1.81   2.25 -999 -999 -999  58.3  62.2 1023.0 -9.9 -9.999 -99.9 -99.99 -9.99
2018/10/19 13:30 EDT    1.73   2.16 -999 -999 -999  58.5  62.2 1022.9 -9.9 -9.999 -99.9 -99.99 -9.99
2018/10/19 13:36 EDT    1.66   2.10 -999 -999 -999  58.6  62.2 1022.9 -9.9 -9.999 -99.9 -99.99 -9.99
2018/10/19 13:42 EDT    1.59   2.02 -999 -999 -999  59.2  62.4 1022.8 -9.9 -9.999 -99.9 -99.99 -9.99
2018/10/19 13:48 EDT    1.52   1.92 -999 -999 -999  59.2  62.4 1022.8 -9.9 -9.999 -99.9 -99.99 -9.99
2018/10/19 13:54 EDT    1.45   1.87 -999 -999 -999  59.2  62.4 1022.5 -9.9 -9.999 -99.9 -99.99 -9.99
2018/10/19 14:00 EDT    1.39   1.80 -999 -999 -999  59.2  62.2 1022.3 -9.9 -9.999 -99.9 -99.99 -9.99
2018/10/19 14:06 EDT    1.32   1.70 -999 -999 -999  59.0  62.2 1021.8 -9.9 -9.999 -99.9 -99.99 -9.99
2018/10/19 14:12 EDT    1.26   1.63 -999 -999 -999  59.4  62.2 1021.7 -9.9 -9.999 -99.9 -99.99 -9.99
2018/10/19 14:18 EDT    1.20   1.55 -999 -999 -999  59.5  62.2 1021.6 -9.9 -9.999 -99.9 -99.99 -9.99
2018/10/19 14:24 EDT    1.14   1.49 -999 -999 -999  59.9  62.2 1021.3 -9.9 -9.999 -99.9 -99.99 -9.99
2018/10/19 14:30 EDT    1.09   1.40 -999 -999 -999  59.7  62.2 1021.1 -9.9 -9.999 -99.9 -99.99 -9.99
2018/10/19 14:36 EDT    1.03   1.35 -999 -999 -999  59.7  62.2 1020.9 -9.9 -9.999 -99.9 -99.99 -9.99
2018/10/19 14:42 EDT    0.98   1.27 -999 -999 -999  60.1  62.2 1020.8 -9.9 -9.999 -99.9 -99.99 -9.99
2018/10/19 14:48 EDT    0.92   1.21 -999 -999 -999  59.9  62.2 1020.8 -9.9 -9.999 -99.9 -99.99 -9.99
2018/10/19 14:54 EDT    0.88   1.16 -999 -999 -999  60.1  62.2 1020.7 -9.9 -9.999 -99.9 -99.99 -9.99
2018/10/19 15:00 EDT    0.83   1.10 -999 -999 -999  60.1  62.2 1020.7 -9.9 -9.999 -99.9 -99.99 -9.99
2018/10/19 15:06 EDT    0.79   1.06 -999 -999 -999  60.3  62.2 1020.6 -9.9 -9.999 -99.9 -99.99 -9.99
2018/10/19 15:12 EDT    0.76 -99.99 -999 -999 -999 -99.9 -99.9 -999.9 -9.9 -9.999 -99.9 -99.99 -9.99
2018/10/19 15:18 EDT    0.73 -99.99 -999 -999 -999 -99.9 -99.9 -999.9 -9.9 -9.999 -99.9 -99.99 -9.99
2018/10/19 15:24 EDT    0.71 -99.99 -999 -999 -999 -99.9 -99.9 -999.9 -9.9 -9.999 -99.9 -99.99 -9.99
2018/10/19 15:30 EDT    0.69 -99.99 -999 -999 -999 -99.9 -99.9 -999.9 -9.9 -9.999 -99.9 -99.99 -9.99
2018/10/19 15:36 EDT    0.69 -99.99 -999 -999 -999 -99.9 -99.9 -999.9 -9.9 -9.999 -99.9 -99.99 -9.99
2018/10/19 15:42 EDT    0.69 -99.99 -999 -999 -999 -99.9 -99.9 -999.9 -9.9 -9.999 -99.9 -99.99 -9.99
2018/10/19 15:48 EDT    0.70 -99.99 -999 -999 -999 -99.9 -99.9 -999.9 -9.9 -9.999 -99.9 -99.99 -9.99
2018/10/19 15:54 EDT    0.72 -99.99 -999 -999 -999 -99.9 -99.9 -999.9 -9.9 -9.999 -99.9 -99.99 -9.99
2018/10/19 16:00 EDT    0.76 -99.99 -999 -999 -999 -99.9 -99.9 -999.9 -9.9 -9.999 -99.9 -99.99 -9.99
2018/10/19 16:06 EDT    0.80 -99.99 -999 -999 -999 -99.9 -99.9 -999.9 -9.9 -9.999 -99.9 -99.99 -9.99
2018/10/19 16:12 EDT    0.86 -99.99 -999 -999 -999 -99.9 -99.9 -999.9 -9.9 -9.999 -99.9 -99.99 -9.99
2018/10/19 16:18 EDT    0.92 -99.99 -999 -999 -999 -99.9 -99.9 -999.9 -9.9 -9.999 -99.9 -99.99 -9.99
2018/10/19 16:24 EDT    1.00 -99.99 -999 -999 -999 -99.9 -99.9 -999.9 -9.9 -9.999 -99.9 -99.99 -9.99
2018/10/19 16:30 EDT    1.09 -99.99 -999 -999 -999 -99.9 -99.9 -999.9 -9.9 -9.999 -99.9 -99.99 -9.99
2018/10/19 16:36 EDT    1.19 -99.99 -999 -999 -999 -99.9 -99.9 -999.9 -9.9 -9.999 -99.9 -99.99 -9.99
2018/10/19 16:42 EDT    1.30 -99.99 -999 -999 -999 -99.9 -99.9 -999.9 -9.9 -9.999 -99.9 -99.99 -9.99
2018/10/19 16:48 EDT    1.41 -99.99 -999 -999 -999 -99.9 -99.9 -999.9 -9.9 -9.999 -99.9 -99.99 -9.99
2018/10/19 16:54 EDT    1.54 -99.99 -999 -999 -999 -99.9 -99.9 -999.9 -9.9 -9.999 -99.9 -99.99 -9.99
2018/10/19 17:00 EDT    1.67 -99.99 -999 -999 -999 -99.9 -99.9 -999.9 -9.9 -9.999 -99.9 -99.99 -9.99
2018/10/19 17:06 EDT    1.81 -99.99 -999 -999 -999 -99.9 -99.9 -999.9 -9.9 -9.999 -99.9 -99.99 -9.99
2018/10/19 17:12 EDT    1.95 -99.99 -999 -999 -999 -99.9 -99.9 -999.9 -9.9 -9.999 -99.9 -99.99 -9.99
2018/10/19 17:18 EDT    2.09 -99.99 -999 -999 -999 -99.9 -99.9 -999.9 -9.9 -9.999 -99.9 -99.99 -9.99
2018/10/19 17:24 EDT    2.24 -99.99 -999 -999 -999 -99.9 -99.9 -999.9 -9.9 -9.999 -99.9 -99.99 -9.99
2018/10/19 17:30 EDT    2.39 -99.99 -999 -999 -999 -99.9 -99.9 -999.9 -9.9 -9.999 -99.9 -99.99 -9.99
2018/10/19 17:36 EDT    2.54 -99.99 -999 -999 -999 -99.9 -99.9 -999.9 -9.9 -9.999 -99.9 -99.99 -9.99
2018/10/19 17:42 EDT    2.69 -99.99 -999 -999 -999 -99.9 -99.9 -999.9 -9.9 -9.999 -99.9 -99.99 -9.99
2018/10/19 17:48 EDT    2.83 -99.99 -999 -999 -999 -99.9 -99.9 -999.9 -9.9 -9.999 -99.9 -99.99 -9.99
2018/10/19 17:54 EDT    2.98 -99.99 -999 -999 -999 -99.9 -99.9 -999.9 -9.9 -9.999 -99.9 -99.99 -9.99
2018/10/19 18:00 EDT    3.12 -99.99 -999 -999 -999 -99.9 -99.9 -999.9 -9.9 -9.999 -99.9 -99.99 -9.99
2018/10/19 18:06 EDT    3.26 -99.99 -999 -999 -999 -99.9 -99.9 -999.9 -9.9 -9.999 -99.9 -99.99 -9.99
2018/10/19 18:12 EDT    3.39 -99.99 -999 -999 -999 -99.9 -99.9 -999.9 -9.9 -9.999 -99.9 -99.99 -9.99
2018/10/19 18:18 EDT    3.52 -99.99 -999 -999 -999 -99.9 -99.9 -999.9 -9.9 -9.999 -99.9 -99.99 -9.99
2018/10/19 18:24 EDT    3.64 -99.99 -999 -999 -999 -99.9 -99.9 -999.9 -9.9 -9.999 -99.9 -99.99 -9.99
2018/10/19 18:30 EDT    3.77 -99.99 -999 -999 -999 -99.9 -99.9 -999.9 -9.9 -9.999 -99.9 -99.99 -9.99
2018/10/19 18:36 EDT    3.88 -99.99 -999 -999 -999 -99.9 -99.9 -999.9 -9.9 -9.999 -99.9 -99.99 -9.99
2018/10/19 18:42 EDT    3.99 -99.99 -999 -999 -999 -99.9 -99.9 -999.9 -9.9 -9.999 -99.9 -99.99 -9.99
2018/10/19 18:48 EDT    4.10 -99.99 -999 -999 -999 -99.9 -99.9 -999.9 -9.9 -9.999 -99.9 -99.99 -9.99
2018/10/19 18:54 EDT    4.21 -99.99 -999 -999 -999 -99.9 -99.9 -999.9 -9.9 -9.999 -99.9 -99.99 -9.99
2018/10/19 19:00 EDT    4.31 -99.99 -999 -999 -999 -99.9 -99.9 -999.9 -9.9 -9.999 -99.9 -99.99 -9.99
2018/10/19 19:06 EDT    4.41 -99.99 -999 -999 -999 -99.9 -99.9 -999.9 -9.9 -9.999 -99.9 -99.99 -9.99
2018/10/19 19:12 EDT    4.51 -99.99 -999 -999 -999 -99.9 -99.9 -999.9 -9.9 -9.999 -99.9 -99.99 -9.99
2018/10/19 19:18 EDT    4.60 -99.99 -999 -999 -999 -99.9 -99.9 -999.9 -9.9 -9.999 -99.9 -99.99 -9.99
2018/10/19 19:24 EDT    4.70 -99.99 -999 -999 -999 -99.9 -99.9 -999.9 -9.9 -9.999 -99.9 -99.99 -9.99
2018/10/19 19:30 EDT    4.79 -99.99 -999 -999 -999 -99.9 -99.9 -999.9 -9.9 -9.999 -99.9 -99.99 -9.99
2018/10/19 19:36 EDT    4.88 -99.99 -999 -999 -999 -99.9 -99.9 -999.9 -9.9 -9.999 -99.9 -99.99 -9.99
2018/10/19 19:42 EDT    4.97 -99.99 -999 -999 -999 -99.9 -99.9 -999.9 -9.9 -9.999 -99.9 -99.99 -9.99
2018/10/19 19:48 EDT    5.06 -99.99 -999 -999 -999 -99.9 -99.9 -999.9 -9.9 -9.999 -99.9 -99.99 -9.99
2018/10/19 19:54 EDT    5.15 -99.99 -999 -999 -999 -99.9 -99.9 -999.9 -9.9 -9.999 -99.9 -99.99 -9.99
2018/10/19 20:00 EDT    5.23 -99.99 -999 -999 -999 -99.9 -99.9 -999.9 -9.9 -9.999 -99.9 -99.99 -9.99
2018/10/19 20:06 EDT    5.31 -99.99 -999 -999 -999 -99.9 -99.9 -999.9 -9.9 -9.999 -99.9 -99.99 -9.99
2018/10/19 20:12 EDT    5.39 -99.99 -999 -999 -999 -99.9 -99.9 -999.9 -9.9 -9.999 -99.9 -99.99 -9.99
2018/10/19 20:18 EDT    5.47 -99.99 -999 -999 -999 -99.9 -99.9 -999.9 -9.9 -9.999 -99.9 -99.99 -9.99
2018/10/19 20:24 EDT    5.54 -99.99 -999 -999 -999 -99.9 -99.9 -999.9 -9.9 -9.999 -99.9 -99.99 -9.99
2018/10/19 20:30 EDT    5.61 -99.99 -999 -999 -999 -99.9 -99.9 -999.9 -9.9 -9.999 -99.9 -99.99 -9.99
2018/10/19 20:36 EDT    5.68 -99.99 -999 -999 -999 -99.9 -99.9 -999.9 -9.9 -9.999 -99.9 -99.99 -9.99
2018/10/19 20:42 EDT    5.73 -99.99 -999 -999 -999 -99.9 -99.9 -999.9 -9.9 -9.999 -99.9 -99.99 -9.99
2018/10/19 20:48 EDT    5.79 -99.99 -999 -999 -999 -99.9 -99.9 -999.9 -9.9 -9.999 -99.9 -99.99 -9.99
2018/10/19 20:54 EDT    5.83 -99.99 -999 -999 -999 -99.9 -99.9 -999.9 -9.9 -9.999 -99.9 -99.99 -9.99
2018/10/19 21:00 EDT    5.87 -99.99 -999 -999 -999 -99.9 -99.9 -999.9 -9.9 -9.999 -99.9 -99.99 -9.99
2018/10/19 21:06 EDT    5.90 -99.99 -999 -999 -999 -99.9 -99.9 -999.9 -9.9 -9.999 -99.9 -99.99 -9.99
2018/10/19 21:12 EDT    5.93 -99.99 -999 -999 -999 -99.9 -99.9 -999.9 -9.9 -9.999 -99.9 -99.99 -9.99
2018/10/19 21:18 EDT    5.95 -99.99 -999 -999 -999 -99.9 -99.9 -999.9 -9.9 -9.999 -99.9 -99.99 -9.99

Revised: 08/08/2018
NOAA / National Ocean Service
Web site owner: Center for Operational Oceanographic Products and Services